Time;durP1;ratioP1;P1;durP2;ratioP2;P2;SDS_P1;SDS_P2;PMS_P1;PMS_P2;Temp;Humidity;BMP_temperature;BMP_pressure;BME280_temperature;BME280_humidity;BME280_pressure;Samples;Min_cycle;Max_cycle;Signal;HPM_P1;HPM_P2
2023/04/02 00:01:35;;;;;;;4.13;3.57;;;7.40;99.90;;;;;;5051656;28;20474;-72
2023/04/02 00:04:22;;;;;;;2.50;2.30;;;7.30;99.90;;;;;;5051065;28;20448;-72
2023/04/02 00:07:29;;;;;;;3.03;2.60;;;7.30;99.90;;;;;;5051013;28;20470;-72
2023/04/02 00:09:57;;;;;;;3.17;2.30;;;7.40;99.90;;;;;;5050628;28;20477;-72
2023/04/02 00:12:25;;;;;;;2.63;1.90;;;7.40;99.90;;;;;;5050361;28;20537;-72
2023/04/02 00:14:56;;;;;;;2.33;2.13;;;7.20;99.90;;;;;;5050634;28;20426;-72
2023/04/02 00:17:25;;;;;;;2.67;2.20;;;7.20;99.90;;;;;;5050278;28;20430;-72
2023/04/02 00:19:57;;;;;;;2.80;2.27;;;7.10;99.90;;;;;;5050509;28;20471;-72
2023/04/02 00:22:30;;;;;;;2.80;1.73;;;7.10;99.90;;;;;;5050527;28;20454;-72
2023/04/02 00:25:00;;;;;;;3.63;2.70;;;7.10;99.90;;;;;;5050661;28;20789;-72
2023/04/02 00:27:27;;;;;;;2.40;1.73;;;7.00;99.90;;;;;;5050342;28;20445;-74
2023/04/02 00:29:55;;;;;;;1.67;1.37;;;7.10;99.90;;;;;;5050670;28;20502;-72
2023/04/02 00:32:26;;;;;;;2.37;2.17;;;7.10;99.90;;;;;;5050178;28;20919;-72
2023/04/02 00:34:54;;;;;;;3.17;1.73;;;7.00;99.90;;;;;;5050607;28;20462;-72
2023/04/02 00:37:26;;;;;;;2.43;2.23;;;7.20;99.90;;;;;;5050300;28;20450;-72
2023/04/02 00:40:00;;;;;;;2.90;2.17;;;7.10;99.90;;;;;;5050120;28;20990;-72
2023/04/02 00:42:29;;;;;;;2.83;2.13;;;7.10;99.90;;;;;;5050100;28;20479;-72
2023/04/02 00:44:57;;;;;;;3.23;3.00;;;7.30;99.90;;;;;;5050302;28;20535;-72
2023/04/02 00:47:27;;;;;;;2.17;1.77;;;7.30;99.90;;;;;;5049806;28;20503;-72
2023/04/02 00:49:59;;;;;;;2.23;1.97;;;7.20;99.90;;;;;;5050934;28;20402;-72
2023/04/02 00:52:29;;;;;;;1.77;1.67;;;7.10;99.90;;;;;;5055186;28;20772;-72
2023/04/02 00:55:04;;;;;;;4.87;1.80;;;7.00;99.90;;;;;;5051514;28;20422;-72
2023/04/02 00:57:32;;;;;;;2.53;1.97;;;7.00;99.90;;;;;;5050218;28;20469;-72
2023/04/02 01:00:02;;;;;;;2.60;1.80;;;7.10;99.90;;;;;;5050198;28;20426;-72
2023/04/02 01:02:32;;;;;;;1.90;1.73;;;6.90;99.90;;;;;;5049875;28;20487;-71
2023/04/02 01:05:01;;;;;;;2.10;1.60;;;6.80;99.90;;;;;;5050453;28;20472;-73
2023/04/02 01:07:47;;;;;;;2.27;2.07;;;6.80;99.90;;;;;;5051094;28;20886;-71
2023/04/02 01:10:37;;;;;;;2.10;1.90;;;6.90;99.90;;;;;;5050503;28;20405;-73
2023/04/02 01:13:13;;;;;;;2.47;2.10;;;6.80;99.90;;;;;;5050062;28;20485;-73
2023/04/02 01:15:44;;;;;;;2.30;1.90;;;6.80;99.90;;;;;;5051911;28;20493;-73
2023/04/02 01:18:37;;;;;;;3.37;2.90;;;6.70;99.90;;;;;;5054125;28;20489;-73
2023/04/02 01:21:37;;;;;;;1.70;1.60;;;6.70;99.90;;;;;;5051780;28;20478;-73
2023/04/02 01:24:06;;;;;;;2.03;1.50;;;6.60;99.90;;;;;;5053627;28;20485;-71
2023/04/02 01:26:51;;;;;;;2.23;1.70;;;6.60;99.90;;;;;;5053861;28;20422;-73
2023/04/02 01:29:21;;;;;;;2.77;2.40;;;6.70;99.90;;;;;;5054107;28;20408;-73
2023/04/02 01:31:50;;;;;;;3.17;2.33;;;6.80;99.90;;;;;;5054032;28;20505;-72
2023/04/02 01:34:20;;;;;;;3.90;2.50;;;6.90;99.90;;;;;;5053812;28;21053;-72
2023/04/02 01:37:03;;;;;;;5.03;3.00;;;6.90;99.90;;;;;;5054819;28;20465;-71
2023/04/02 01:39:40;;;;;;;5.67;1.90;;;7.00;99.90;;;;;;5056060;28;20499;-71
2023/04/02 01:42:15;;;;;;;1.50;1.40;;;6.80;99.90;;;;;;5053809;28;20505;-71
2023/04/02 01:44:47;;;;;;;3.20;2.37;;;6.70;99.90;;;;;;5053744;28;20931;-71
2023/04/02 01:47:17;;;;;;;2.27;1.77;;;6.60;99.90;;;;;;5053559;28;20531;-71
2023/04/02 01:49:46;;;;;;;1.57;1.00;;;6.50;99.90;;;;;;5053827;28;20485;-71
2023/04/02 01:52:16;;;;;;;2.30;1.80;;;6.50;99.90;;;;;;5062623;28;20557;-71
2023/04/02 01:54:44;;;;;;;1.60;1.47;;;6.40;99.90;;;;;;5054083;28;20870;-71
2023/04/02 01:57:12;;;;;;;1.90;1.37;;;6.30;99.90;;;;;;5053829;28;20467;-71
2023/04/02 01:59:39;;;;;;;3.50;2.60;;;6.30;99.90;;;;;;5053308;28;20828;-71
2023/04/02 02:02:11;;;;;;;1.70;1.60;;;6.40;99.90;;;;;;5053287;28;20475;-72
2023/04/02 02:04:39;;;;;;;2.10;1.90;;;6.40;99.90;;;;;;5053290;28;20463;-72
2023/04/02 02:07:13;;;;;;;3.87;2.27;;;6.30;99.90;;;;;;5053273;28;20860;-72
2023/04/02 02:09:40;;;;;;;2.67;2.47;;;6.30;99.90;;;;;;5054384;28;20895;-72
2023/04/02 02:12:07;;;;;;;2.27;1.73;;;6.40;99.90;;;;;;5053830;28;20441;-72
2023/04/02 02:14:34;;;;;;;2.43;2.07;;;6.30;99.90;;;;;;5053548;28;20454;-72
2023/04/02 02:17:03;;;;;;;5.00;2.57;;;6.30;99.90;;;;;;5053113;28;20469;-72
2023/04/02 02:19:36;;;;;;;2.30;2.10;;;6.30;99.90;;;;;;5053412;28;20422;-72
2023/04/02 02:22:10;;;;;;;1.87;1.37;;;6.30;99.90;;;;;;5053162;28;20857;-72
2023/04/02 02:24:38;;;;;;;4.00;1.90;;;6.30;99.90;;;;;;5053091;28;20890;-72
2023/04/02 02:27:34;;;;;;;4.20;2.20;;;6.30;99.90;;;;;;5051942;28;20502;-72
2023/04/02 02:30:06;;;;;;;2.70;1.80;;;6.40;99.90;;;;;;5055847;28;20478;-72
2023/04/02 02:32:35;;;;;;;3.60;2.37;;;6.30;99.90;;;;;;5052723;28;20438;-72
2023/04/02 02:35:12;;;;;;;1.67;1.53;;;6.30;99.90;;;;;;5053110;28;20491;-72
2023/04/02 02:37:43;;;;;;;2.10;1.70;;;6.30;99.90;;;;;;5052806;28;20545;-72
2023/04/02 02:40:17;;;;;;;3.17;2.57;;;6.30;99.90;;;;;;5053028;28;20418;-72
2023/04/02 02:42:49;;;;;;;2.43;1.30;;;6.20;99.90;;;;;;5052671;28;20568;-72
2023/04/02 02:45:20;;;;;;;5.03;1.90;;;6.20;99.90;;;;;;5052777;28;20539;-72
2023/04/02 02:47:49;;;;;;;2.07;1.40;;;6.20;99.90;;;;;;5054030;28;20449;-72
2023/04/02 02:50:22;;;;;;;1.83;1.50;;;6.20;99.90;;;;;;5055977;28;20812;-72
2023/04/02 02:52:57;;;;;;;2.13;1.77;;;6.20;99.90;;;;;;5055004;28;20863;-71
2023/04/02 02:55:27;;;;;;;2.87;2.30;;;6.10;99.90;;;;;;5052587;28;20452;-71
2023/04/02 02:57:58;;;;;;;3.10;1.47;;;6.00;99.90;;;;;;5052744;28;20546;-71
2023/04/02 03:00:26;;;;;;;2.70;1.93;;;6.10;99.90;;;;;;5052310;28;20963;-71
2023/04/02 03:02:55;;;;;;;1.60;1.50;;;6.10;99.90;;;;;;5052300;28;20498;-71
2023/04/02 03:05:26;;;;;;;4.40;2.20;;;6.10;99.90;;;;;;5052326;28;20429;-72
2023/04/02 03:07:56;;;;;;;2.00;1.80;;;5.90;99.90;;;;;;5052300;28;20438;-71
2023/04/02 03:10:29;;;;;;;3.43;2.10;;;5.90;99.90;;;;;;5052363;28;20517;-71
2023/04/02 03:13:05;;;;;;;5.90;3.40;;;5.90;99.90;;;;;;5053326;28;20523;-71
2023/04/02 03:15:38;;;;;;;6.37;2.53;;;5.80;99.90;;;;;;5052832;28;20445;-71
2023/04/02 03:18:11;;;;;;;2.20;1.73;;;5.70;99.90;;;;;;5054101;28;20540;-71
2023/04/02 03:20:45;;;;;;;4.37;2.43;;;5.70;99.90;;;;;;5052544;28;20510;-72
2023/04/02 03:23:17;;;;;;;3.77;3.37;;;5.70;99.90;;;;;;5051668;28;20445;-71
2023/04/02 03:25:52;;;;;;;3.60;3.30;;;5.70;99.90;;;;;;5052206;28;20497;-71
2023/04/02 03:28:23;;;;;;;3.57;3.27;;;5.70;99.90;;;;;;5052207;28;20420;-71
2023/04/02 03:30:54;;;;;;;3.40;3.10;;;5.60;99.90;;;;;;5051985;28;20967;-72
2023/04/02 03:33:26;;;;;;;3.27;2.40;;;5.70;99.90;;;;;;5051474;28;20603;-71
2023/04/02 03:35:59;;;;;;;1.90;1.80;;;5.60;99.90;;;;;;5051803;28;20485;-71
2023/04/02 03:38:30;;;;;;;3.43;2.60;;;5.60;99.90;;;;;;5051085;28;20835;-71
2023/04/02 03:41:03;;;;;;;3.90;3.10;;;5.50;99.90;;;;;;5051515;28;20448;-71
2023/04/02 03:43:35;;;;;;;5.63;3.03;;;5.50;99.90;;;;;;5051670;28;20558;-71
2023/04/02 03:46:17;;;;;;;2.63;2.30;;;5.60;99.90;;;;;;5051193;28;20434;-71
2023/04/02 03:48:46;;;;;;;3.87;2.50;;;5.40;99.90;;;;;;5051853;28;20436;-71
2023/04/02 03:51:19;;;;;;;3.70;2.00;;;5.50;99.90;;;;;;5059232;28;20506;-71
2023/04/02 03:53:47;;;;;;;4.83;2.93;;;5.60;99.90;;;;;;5052340;28;20458;-71
2023/04/02 03:56:26;;;;;;;1.57;1.47;;;5.40;99.90;;;;;;5051244;28;20558;-71
2023/04/02 03:59:04;;;;;;;2.03;1.67;;;5.50;99.90;;;;;;5051319;28;20929;-71
2023/04/02 04:01:36;;;;;;;4.00;3.43;;;5.40;99.90;;;;;;5051197;28;20788;-72
2023/04/02 04:04:09;;;;;;;2.67;2.50;;;5.50;99.90;;;;;;5050763;28;21043;-71
2023/04/02 04:06:42;;;;;;;2.60;2.30;;;5.40;99.90;;;;;;5050891;28;20438;-71
2023/04/02 04:09:15;;;;;;;5.10;3.07;;;5.40;99.90;;;;;;5050866;28;20493;-71
2023/04/02 04:11:48;;;;;;;4.00;2.57;;;5.30;99.90;;;;;;5051375;28;20402;-71
2023/04/02 04:14:18;;;;;;;5.50;3.57;;;5.30;99.90;;;;;;5051147;28;20425;-71
2023/04/02 04:16:52;;;;;;;4.30;3.27;;;5.30;99.90;;;;;;5050955;28;20512;-71
2023/04/02 04:19:28;;;;;;;4.23;2.90;;;5.20;99.90;;;;;;5050915;28;20418;-71
2023/04/02 04:22:10;;;;;;;2.90;2.53;;;5.20;99.90;;;;;;5052110;28;20949;-71
2023/04/02 04:24:38;;;;;;;5.10;3.63;;;5.20;99.90;;;;;;5051549;28;20402;-71
2023/04/02 04:27:09;;;;;;;4.40;3.17;;;5.10;99.90;;;;;;5054429;28;20460;-71
2023/04/02 04:29:44;;;;;;;4.93;3.13;;;5.00;99.90;;;;;;5050690;28;20876;-71
2023/04/02 04:32:19;;;;;;;3.17;2.87;;;5.20;99.90;;;;;;5050948;28;20483;-71
2023/04/02 04:34:52;;;;;;;4.27;3.33;;;5.20;99.90;;;;;;5050755;28;20505;-71
2023/04/02 04:37:25;;;;;;;10.47;3.37;;;5.20;99.90;;;;;;5050812;28;20457;-71
2023/04/02 04:39:59;;;;;;;4.33;3.07;;;5.10;99.90;;;;;;5051142;28;20466;-71
2023/04/02 04:42:29;;;;;;;4.27;2.90;;;5.10;99.90;;;;;;5050415;28;20570;-71
2023/04/02 04:45:02;;;;;;;6.57;3.87;;;5.10;99.90;;;;;;5050811;28;20887;-71
2023/04/02 04:47:34;;;;;;;5.70;3.17;;;5.10;99.90;;;;;;5052091;28;20478;-71
2023/04/02 04:50:07;;;;;;;4.80;3.37;;;5.10;99.90;;;;;;5055671;28;20511;-71
2023/04/02 04:52:38;;;;;;;2.80;1.93;;;5.20;99.90;;;;;;5050882;28;20492;-71
2023/04/02 04:55:23;;;;;;;9.73;4.87;;;5.10;99.90;;;;;;5051386;28;20774;-72
2023/04/02 04:57:54;;;;;;;4.03;3.27;;;4.90;99.90;;;;;;5056854;28;20445;-72
2023/04/02 05:00:27;;;;;;;4.77;2.23;;;5.00;99.90;;;;;;5050536;28;20437;-71
2023/04/02 05:03:02;;;;;;;6.67;3.87;;;4.90;99.90;;;;;;5050655;28;20554;-71
2023/04/02 05:05:34;;;;;;;9.90;3.57;;;5.00;99.90;;;;;;5050806;28;20501;-71
2023/04/02 05:08:11;;;;;;;10.20;3.70;;;4.80;99.90;;;;;;5050347;28;20481;-71
2023/04/02 05:10:42;;;;;;;3.73;3.43;;;4.90;99.90;;;;;;5049963;28;20434;-71
2023/04/02 05:13:16;;;;;;;5.13;2.50;;;4.90;99.90;;;;;;5050067;28;20430;-71
2023/04/02 05:15:49;;;;;;;9.13;3.50;;;4.90;99.90;;;;;;5050337;28;20989;-71
2023/04/02 05:18:24;;;;;;;8.30;2.37;;;5.10;99.90;;;;;;5051529;28;20463;-71
2023/04/02 05:20:56;;;;;;;7.10;3.60;;;4.90;99.90;;;;;;5050245;28;20435;-71
2023/04/02 05:23:27;;;;;;;3.90;3.60;;;4.90;99.90;;;;;;5049998;28;20492;-71
2023/04/02 05:26:02;;;;;;;3.70;2.20;;;5.00;99.90;;;;;;5049661;28;20735;-71
2023/04/02 05:28:34;;;;;;;4.93;3.10;;;4.90;99.90;;;;;;5049533;28;20494;-71
2023/04/02 05:31:05;;;;;;;4.67;3.23;;;4.90;99.90;;;;;;5049650;28;20402;-71
2023/04/02 05:33:35;;;;;;;4.30;3.43;;;4.90;99.90;;;;;;5050067;28;20430;-71
2023/04/02 05:36:05;;;;;;;3.30;2.47;;;5.00;99.90;;;;;;5050086;28;20418;-71
2023/04/02 05:38:36;;;;;;;9.60;3.03;;;5.00;99.90;;;;;;5049704;28;20872;-71
2023/04/02 05:41:08;;;;;;;3.60;3.30;;;4.80;99.90;;;;;;5053089;28;20452;-71
2023/04/02 05:43:38;;;;;;;2.27;2.07;;;4.90;99.90;;;;;;5049975;28;20463;-71
2023/04/02 05:46:16;;;;;;;5.13;2.90;;;4.90;99.90;;;;;;5050340;28;20533;-71
2023/04/02 05:48:45;;;;;;;4.70;2.57;;;4.70;99.90;;;;;;5052010;28;20446;-71
2023/04/02 05:51:20;;;;;;;4.77;2.97;;;4.60;99.90;;;;;;5049897;28;20428;-71
2023/04/02 05:53:53;;;;;;;3.83;2.30;;;4.60;99.90;;;;;;5050380;28;20868;-71
2023/04/02 05:56:24;;;;;;;3.50;3.00;;;4.70;99.90;;;;;;5055146;28;20517;-71
2023/04/02 05:58:54;;;;;;;5.57;2.87;;;4.70;99.90;;;;;;5050489;28;20477;-71
2023/04/02 06:01:40;;;;;;;3.43;2.37;;;4.60;99.90;;;;;;5059162;28;20426;-71
2023/04/02 06:04:15;;;;;;;5.80;2.77;;;4.70;99.90;;;;;;5056579;28;20467;-71
2023/04/02 06:06:58;;;;;;;3.10;2.13;;;4.80;99.90;;;;;;5054752;28;20438;-71
2023/04/02 06:09:37;;;;;;;2.00;1.80;;;4.80;99.90;;;;;;5053807;28;20420;-71
2023/04/02 06:12:15;;;;;;;13.07;2.40;;;4.80;99.90;;;;;;5053620;28;20538;-71
2023/04/02 06:14:42;;;;;;;3.90;2.60;;;4.70;99.90;;;;;;5053104;28;20967;-71
2023/04/02 06:17:15;;;;;;;43.67;3.30;;;4.70;99.90;;;;;;5052895;28;20536;-71
2023/04/02 06:19:42;;;;;;;4.03;2.60;;;4.90;99.90;;;;;;5052456;28;20411;-71
2023/04/02 06:22:18;;;;;;;4.93;2.60;;;4.90;99.90;;;;;;5053298;28;20508;-71
2023/04/02 06:24:52;;;;;;;5.30;2.00;;;4.70;99.90;;;;;;5052936;28;20554;-71
2023/04/02 06:27:21;;;;;;;3.07;2.77;;;4.70;99.90;;;;;;5053139;28;20629;-72
2023/04/02 06:29:54;;;;;;;3.30;2.70;;;4.80;99.90;;;;;;5053546;28;20433;-72
2023/04/02 06:32:24;;;;;;;4.73;3.50;;;4.80;99.90;;;;;;5053530;28;20746;-72
2023/04/02 06:34:51;;;;;;;2.63;2.00;;;5.10;99.90;;;;;;5054116;28;20567;-72
2023/04/02 06:37:24;;;;;;;3.07;2.77;;;4.90;99.90;;;;;;5055016;28;20495;-72
2023/04/02 06:39:53;;;;;;;6.00;2.60;;;4.90;99.90;;;;;;5052930;28;20432;-72
2023/04/02 06:42:22;;;;;;;5.60;2.13;;;4.80;99.90;;;;;;5055287;28;20877;-71
2023/04/02 06:44:50;;;;;;;3.83;1.93;;;4.70;99.90;;;;;;5052596;28;20487;-72
2023/04/02 06:47:25;;;;;;;4.90;4.07;;;4.80;99.90;;;;;;5064361;28;20471;-72
2023/04/02 06:49:58;;;;;;;3.67;2.87;;;4.80;99.90;;;;;;5053201;28;20467;-72
2023/04/02 06:52:29;;;;;;;2.60;1.87;;;4.90;99.90;;;;;;5053056;28;20487;-72
2023/04/02 06:55:00;;;;;;;2.03;1.83;;;4.90;99.90;;;;;;5052509;28;20435;-72
2023/04/02 06:57:27;;;;;;;2.33;1.90;;;5.00;99.90;;;;;;5052313;28;21020;-72
2023/04/02 06:59:54;;;;;;;2.53;1.60;;;4.90;99.90;;;;;;5052863;28;20479;-72
2023/04/02 07:02:35;;;;;;;10.53;2.17;;;4.80;99.90;;;;;;5052705;28;20439;-72
2023/04/02 07:05:05;;;;;;;2.90;1.73;;;4.80;99.90;;;;;;5055832;28;20438;-72
2023/04/02 07:07:32;;;;;;;4.43;3.27;;;4.90;99.90;;;;;;5055376;28;20498;-72
2023/04/02 07:10:01;;;;;;;2.83;2.10;;;4.90;99.90;;;;;;5052113;28;20505;-72
2023/04/02 07:12:28;;;;;;;2.27;2.07;;;5.00;99.90;;;;;;5052195;28;20486;-72
2023/04/02 07:14:55;;;;;;;1.50;1.23;;;5.00;99.90;;;;;;5051743;28;20859;-72
2023/04/02 07:17:22;;;;;;;6.70;3.20;;;5.00;99.90;;;;;;5052352;28;20881;-72
2023/04/02 07:19:49;;;;;;;3.90;2.80;;;5.00;99.90;;;;;;5052266;28;20466;-72
2023/04/02 07:22:17;;;;;;;4.37;3.00;;;5.10;99.90;;;;;;5052270;28;20448;-72
2023/04/02 07:24:45;;;;;;;4.30;2.80;;;5.20;99.90;;;;;;5052080;28;20443;-72
2023/04/02 07:27:15;;;;;;;7.87;3.37;;;5.10;99.90;;;;;;5053009;28;20521;-72
2023/04/02 07:29:42;;;;;;;3.30;2.23;;;5.10;99.90;;;;;;5067809;28;20425;-71
2023/04/02 07:32:10;;;;;;;2.13;1.93;;;5.10;99.90;;;;;;5052665;28;20462;-71
2023/04/02 07:34:37;;;;;;;2.43;1.77;;;5.20;99.90;;;;;;5052078;28;20794;-71
2023/04/02 07:37:04;;;;;;;2.43;2.23;;;5.00;99.90;;;;;;5051753;28;20449;-71
2023/04/02 07:39:31;;;;;;;1.37;1.10;;;4.90;99.90;;;;;;5051645;28;20444;-71
2023/04/02 07:42:01;;;;;;;2.20;2.00;;;4.90;99.90;;;;;;5051456;28;20430;-71
2023/04/02 07:44:30;;;;;;;3.70;2.57;;;4.90;99.90;;;;;;5052507;28;20458;-72
2023/04/02 07:46:57;;;;;;;3.30;2.53;;;5.00;99.90;;;;;;5057183;28;20480;-72
2023/04/02 07:49:24;;;;;;;3.17;1.50;;;5.10;99.90;;;;;;5051631;28;20531;-72
2023/04/02 07:51:52;;;;;;;5.30;2.27;;;5.10;99.90;;;;;;5051522;28;20444;-72
2023/04/02 07:54:19;;;;;;;5.43;1.93;;;5.10;99.90;;;;;;5051313;28;20422;-72
2023/04/02 07:56:46;;;;;;;4.37;2.90;;;5.10;99.90;;;;;;5051418;28;20452;-72
2023/04/02 07:59:13;;;;;;;1.97;1.67;;;5.00;99.90;;;;;;5051052;28;20774;-72
2023/04/02 08:01:44;;;;;;;2.27;1.50;;;4.90;99.90;;;;;;5051682;28;20518;-72
2023/04/02 08:04:18;;;;;;;2.27;1.87;;;5.00;99.90;;;;;;5051221;28;20483;-72
2023/04/02 08:06:46;;;;;;;2.93;2.23;;;5.00;99.90;;;;;;5053588;28;20731;-72
2023/04/02 08:09:13;;;;;;;4.77;3.30;;;5.10;99.90;;;;;;5054492;28;20426;-71
2023/04/02 08:11:41;;;;;;;2.90;2.53;;;5.10;99.90;;;;;;5052490;28;20436;-71
2023/04/02 08:14:08;;;;;;;3.60;2.90;;;5.00;99.90;;;;;;5052075;28;20509;-71
2023/04/02 08:16:47;;;;;;;4.60;2.10;;;5.10;99.90;;;;;;5055700;28;20477;-71
2023/04/02 08:19:14;;;;;;;4.57;2.07;;;5.10;99.90;;;;;;5051189;28;20445;-71
2023/04/02 08:21:41;;;;;;;1.20;0.93;;;5.10;99.90;;;;;;5051816;28;20414;-71
2023/04/02 08:24:08;;;;;;;2.17;1.80;;;5.10;99.90;;;;;;5050753;28;20534;-71
2023/04/02 08:26:36;;;;;;;4.07;3.67;;;5.00;99.90;;;;;;5050383;28;20517;-71
2023/04/02 08:29:03;;;;;;;5.07;2.27;;;5.00;99.90;;;;;;5050699;28;20450;-71
2023/04/02 08:31:31;;;;;;;2.33;1.53;;;5.00;99.90;;;;;;5050499;28;20486;-71
2023/04/02 08:34:00;;;;;;;2.20;2.00;;;5.00;99.90;;;;;;5050306;28;20949;-71
2023/04/02 08:36:30;;;;;;;12.00;2.10;;;5.10;99.90;;;;;;5050675;28;20473;-71
2023/04/02 08:39:00;;;;;;;3.00;2.40;;;5.20;99.90;;;;;;5050879;28;20431;-72
2023/04/02 08:41:29;;;;;;;4.30;2.30;;;5.30;99.90;;;;;;5050712;28;20438;-72
2023/04/02 08:44:22;;;;;;;2.30;2.10;;;5.30;99.90;;;;;;5055581;28;20453;-72
2023/04/02 08:46:55;;;;;;;2.13;1.63;;;5.60;99.90;;;;;;5052897;28;20442;-72
2023/04/02 08:49:32;;;;;;;1.50;1.27;;;5.70;99.90;;;;;;5050358;28;20410;-72
2023/04/02 08:52:00;;;;;;;4.97;2.07;;;5.60;99.90;;;;;;5050347;28;20788;-72
2023/04/02 08:54:29;;;;;;;4.20;2.37;;;5.60;99.90;;;;;;5050470;28;20447;-72
2023/04/02 08:57:02;;;;;;;3.23;1.90;;;5.70;99.90;;;;;;5050225;28;20467;-72
2023/04/02 08:59:33;;;;;;;6.47;2.60;;;5.50;99.90;;;;;;5049948;28;20422;-71
2023/04/02 09:02:14;;;;;;;3.03;2.70;;;5.60;99.90;;;;;;5054672;28;20428;-72
2023/04/02 09:04:43;;;;;;;4.03;2.20;;;5.70;99.90;;;;;;5050436;28;20469;-72
2023/04/02 09:07:14;;;;;;;1.97;1.77;;;5.70;99.90;;;;;;5050278;28;20446;-72
2023/04/02 09:09:41;;;;;;;5.73;2.90;;;5.50;99.90;;;;;;5049781;28;20418;-72
2023/04/02 09:12:18;;;;;;;2.07;1.87;;;5.40;99.90;;;;;;5051354;28;20443;-72
2023/04/02 09:14:53;;;;;;;3.07;2.03;;;5.50;99.90;;;;;;5051921;28;20460;-72
2023/04/02 09:17:22;;;;;;;4.23;2.40;;;5.60;99.90;;;;;;5050138;28;20467;-72
2023/04/02 09:19:56;;;;;;;4.30;3.73;;;5.60;99.90;;;;;;5050121;28;20444;-72
2023/04/02 09:22:25;;;;;;;1.67;1.57;;;5.60;99.90;;;;;;5031105;28;20860;-72
2023/04/02 09:24:53;;;;;;;9.17;2.20;;;5.70;99.90;;;;;;5050236;28;20881;-73
2023/04/02 09:27:21;;;;;;;1.77;1.53;;;5.70;99.90;;;;;;5049955;28;20547;-72
2023/04/02 09:29:52;;;;;;;5.47;2.20;;;5.70;99.90;;;;;;5050825;28;20407;-72
2023/04/02 09:32:27;;;;;;;4.23;2.80;;;5.60;99.90;;;;;;5051246;28;20494;-72
2023/04/02 09:35:11;;;;;;;2.70;1.50;;;5.80;99.90;;;;;;5050109;28;20475;-72
2023/04/02 09:37:39;;;;;;;3.87;2.67;;;5.80;99.90;;;;;;5052797;28;20446;-72
2023/04/02 09:40:25;;;;;;;2.27;1.70;;;5.90;99.90;;;;;;5053722;28;20448;-73
2023/04/02 09:43:10;;;;;;;2.70;2.17;;;5.80;99.90;;;;;;5058652;28;20409;-72
2023/04/02 09:45:37;;;;;;;4.53;1.97;;;6.00;99.90;;;;;;5057721;28;20809;-73
2023/04/02 09:48:21;;;;;;;4.30;2.50;;;6.10;99.90;;;;;;5054016;28;20519;-72
2023/04/02 09:50:49;;;;;;;4.40;2.33;;;6.00;99.90;;;;;;5053788;28;20515;-73
2023/04/02 09:53:30;;;;;;;2.47;2.03;;;5.90;99.90;;;;;;5056236;28;20447;-72
2023/04/02 09:56:15;;;;;;;2.00;1.50;;;6.10;99.90;;;;;;5053946;28;20803;-72
2023/04/02 09:58:44;;;;;;;3.13;2.00;;;6.20;99.90;;;;;;5053973;28;20482;-72
2023/04/02 10:01:28;;;;;;;2.90;2.13;;;6.00;99.90;;;;;;5054219;28;20458;-72
2023/04/02 10:03:57;;;;;;;2.47;2.27;;;5.90;99.90;;;;;;5055431;28;20406;-74
2023/04/02 10:06:27;;;;;;;2.53;2.10;;;5.80;99.90;;;;;;5053132;28;20449;-73
2023/04/02 10:08:54;;;;;;;2.17;2.00;;;6.10;99.90;;;;;;5053629;28;20531;-72
2023/04/02 10:11:27;;;;;;;1.50;1.20;;;6.10;99.90;;;;;;5053292;28;20785;-73
2023/04/02 10:13:57;;;;;;;2.50;2.30;;;6.30;99.90;;;;;;5053306;28;20451;-73
2023/04/02 10:16:31;;;;;;;3.43;2.53;;;6.30;99.90;;;;;;5056115;28;20479;-72
2023/04/02 10:19:02;;;;;;;3.40;3.00;;;6.20;99.90;;;;;;5055462;28;20403;-73
2023/04/02 10:21:34;;;;;;;4.93;2.27;;;6.20;99.90;;;;;;5052970;28;20947;-73
2023/04/02 10:24:01;;;;;;;2.50;2.30;;;6.30;99.90;;;;;;5052974;28;20453;-72
2023/04/02 10:26:42;;;;;;;1.60;1.50;;;6.20;99.90;;;;;;5053024;28;20450;-72
2023/04/02 10:29:35;;;;;;;1.87;1.57;;;6.20;99.90;;;;;;5053246;28;20863;-73
2023/04/02 10:32:08;;;;;;;2.03;1.83;;;6.20;99.90;;;;;;5052609;28;20532;-72
2023/04/02 10:34:42;;;;;;;5.20;2.37;;;6.50;99.90;;;;;;5054192;28;20405;-72
2023/04/02 10:37:34;;;;;;;1.90;1.60;;;6.50;99.90;;;;;;5054273;28;20951;-72
2023/04/02 10:40:09;;;;;;;2.60;1.67;;;6.30;99.90;;;;;;5052980;28;20406;-72
2023/04/02 10:42:45;;;;;;;3.70;1.80;;;6.30;99.90;;;;;;5062283;28;20453;-72
2023/04/02 10:45:24;;;;;;;3.30;2.40;;;6.50;99.90;;;;;;5053604;28;20507;-72
2023/04/02 10:48:00;;;;;;;3.27;1.80;;;6.70;99.90;;;;;;5051153;28;20453;-72
2023/04/02 10:50:34;;;;;;;1.87;1.70;;;6.70;99.90;;;;;;5051202;28;20834;-73
2023/04/02 10:53:11;;;;;;;1.20;1.10;;;6.80;99.90;;;;;;5052498;28;20395;-72
2023/04/02 10:55:44;;;;;;;1.50;1.27;;;6.60;99.90;;;;;;5054849;28;20445;-72
2023/04/02 10:58:20;;;;;;;2.03;1.83;;;6.50;99.90;;;;;;5052525;28;20449;-72
2023/04/02 11:00:49;;;;;;;1.90;1.50;;;6.40;99.90;;;;;;5052293;28;20467;-73
2023/04/02 11:03:23;;;;;;;1.70;1.60;;;6.30;99.90;;;;;;5052388;28;20534;-72
2023/04/02 11:05:53;;;;;;;2.27;1.83;;;6.40;99.90;;;;;;5052327;28;20467;-72
2023/04/02 11:08:25;;;;;;;2.10;1.60;;;6.50;99.90;;;;;;5052223;28;20501;-73
2023/04/02 11:10:58;;;;;;;1.50;1.40;;;6.70;99.90;;;;;;5051955;28;20410;-72
2023/04/02 11:13:28;;;;;;;2.23;1.20;;;6.70;99.90;;;;;;5052516;28;20504;-72
2023/04/02 11:15:55;;;;;;;3.17;2.57;;;6.40;99.90;;;;;;5052196;28;20511;-72
2023/04/02 11:18:26;;;;;;;1.90;1.57;;;6.60;99.90;;;;;;5052242;28;20510;-72
2023/04/02 11:21:02;;;;;;;1.93;1.80;;;6.70;99.90;;;;;;5052622;28;20506;-72
2023/04/02 11:23:33;;;;;;;2.27;1.40;;;6.80;99.90;;;;;;5051657;28;20444;-72
2023/04/02 11:26:37;;;;;;;2.13;1.70;;;6.80;99.90;;;;;;5051479;28;20546;-72
2023/04/02 11:29:26;;;;;;;2.13;1.50;;;6.70;99.90;;;;;;5052254;28;20974;-72
2023/04/02 11:32:26;;;;;;;1.80;1.10;;;6.60;99.90;;;;;;5050579;28;20462;-73
2023/04/02 11:35:28;;;;;;;1.60;1.27;;;6.70;99.90;;;;;;5052479;28;20426;-72
2023/04/02 11:37:57;;;;;;;2.03;1.70;;;6.60;99.90;;;;;;5052058;28;20443;-72
2023/04/02 11:40:48;;;;;;;4.23;1.70;;;6.90;99.90;;;;;;5052022;28;20947;-73
2023/04/02 11:43:50;;;;;;;12.30;2.00;;;7.10;99.90;;;;;;5053008;28;20426;-73
2023/04/02 11:46:40;;;;;;;6.03;1.77;;;7.30;99.90;;;;;;5051236;28;20970;-72
2023/04/02 11:49:40;;;;;;;1.30;1.20;;;7.40;99.90;;;;;;5048557;28;20932;-73
2023/04/02 11:52:22;;;;;;;11.40;3.40;;;7.40;99.90;;;;;;5051050;28;20946;-73
2023/04/02 11:55:14;;;;;;;1.50;1.27;;;7.70;99.90;;;;;;5056056;28;20443;-73
2023/04/02 11:57:51;;;;;;;3.70;1.23;;;7.40;99.90;;;;;;5051119;28;20471;-73
2023/04/02 12:00:35;;;;;;;1.60;1.50;;;7.60;99.90;;;;;;5050955;28;20462;-72
2023/04/02 12:03:24;;;;;;;1.80;1.70;;;7.50;99.90;;;;;;5050843;28;20402;-73
2023/04/02 12:06:05;;;;;;;1.80;1.70;;;7.40;99.90;;;;;;5051078;28;20467;-73
2023/04/02 12:08:46;;;;;;;3.57;2.67;;;7.40;99.90;;;;;;5033171;28;20854;-73
2023/04/02 12:11:14;;;;;;;14.40;10.60;;;7.40;99.90;;;;;;5050577;28;20498;-73
2023/04/02 12:13:50;;;;;;;2.90;1.77;;;7.60;99.90;;;;;;5051469;28;20426;-73
2023/04/02 12:16:18;;;;;;;2.13;1.93;;;7.50;99.90;;;;;;5055310;28;20434;-73
2023/04/02 12:18:50;;;;;;;1.57;1.37;;;7.30;99.90;;;;;;5058320;28;20875;-73
2023/04/02 12:21:18;;;;;;;3.47;1.90;;;7.20;99.90;;;;;;5051375;28;20410;-72
2023/04/02 12:23:48;;;;;;;3.70;2.87;;;7.30;99.90;;;;;;5051212;28;20444;-72
2023/04/02 12:26:35;;;;;;;2.50;1.87;;;7.50;99.90;;;;;;5050541;28;21308;-72
2023/04/02 12:29:22;;;;;;;1.43;1.20;;;7.60;99.90;;;;;;5050104;28;20496;-72
2023/04/02 12:31:49;;;;;;;2.67;1.83;;;7.70;99.90;;;;;;5050165;28;20930;-72
2023/04/02 12:34:18;;;;;;;4.83;2.17;;;7.70;99.90;;;;;;5050533;28;20450;-73
2023/04/02 12:36:58;;;;;;;4.50;1.50;;;8.00;99.90;;;;;;5050912;28;20463;-72
2023/04/02 12:39:26;;;;;;;3.83;1.67;;;8.10;99.90;;;;;;5056856;28;20394;-72
2023/04/02 12:41:53;;;;;;;2.13;1.30;;;8.20;99.90;;;;;;5058111;28;20453;-73
2023/04/02 12:44:23;;;;;;;2.17;1.80;;;8.50;99.90;;;;;;5050647;28;20418;-71
2023/04/02 12:46:51;;;;;;;1.27;1.10;;;8.40;99.90;;;;;;5050732;28;20903;-71
2023/04/02 12:49:28;;;;;;;1.60;1.50;;;8.40;99.90;;;;;;5050886;28;20452;-71
2023/04/02 12:51:57;;;;;;;1.00;0.80;;;8.40;99.90;;;;;;5050978;28;20463;-71
2023/04/02 12:54:24;;;;;;;3.70;1.70;;;8.40;99.90;;;;;;5050600;28;20505;-73
2023/04/02 12:56:54;;;;;;;5.43;3.17;;;8.10;99.90;;;;;;5050295;28;20491;-71
2023/04/02 12:59:30;;;;;;;2.53;1.50;;;8.20;99.90;;;;;;5052974;28;20445;-71
2023/04/02 13:01:59;;;;;;;2.00;1.70;;;8.40;99.90;;;;;;5049836;28;20489;-71
2023/04/02 13:04:27;;;;;;;1.87;1.23;;;8.70;99.90;;;;;;5050123;28;20486;-71
2023/04/02 13:06:55;;;;;;;1.80;1.20;;;10.30;99.90;;;;;;5049463;28;20906;-71
2023/04/02 13:09:33;;;;;;;1.40;1.30;;;11.80;99.90;;;;;;5050462;28;20447;-71
2023/04/02 13:12:00;;;;;;;1.97;1.77;;;12.70;99.90;;;;;;5049942;28;20855;-71
2023/04/02 13:14:30;;;;;;;3.10;1.57;;;12.80;99.90;;;;;;5051929;28;20493;-71
2023/04/02 13:16:57;;;;;;;1.80;1.70;;;13.40;99.90;;;;;;5050073;28;21049;-71
2023/04/02 13:19:28;;;;;;;3.03;2.37;;;12.60;99.90;;;;;;5049583;28;21013;-71
2023/04/02 13:21:58;;;;;;;1.60;1.50;;;12.00;99.90;;;;;;5050068;28;20450;-75
2023/04/02 13:24:26;;;;;;;2.00;1.80;;;10.90;99.90;;;;;;5049802;28;20450;-71
2023/04/02 13:26:56;;;;;;;1.70;1.40;;;10.90;99.90;;;;;;5049948;28;20939;-71